Time;durP1;ratioP1;P1;durP2;ratioP2;P2;SDS_P1;SDS_P2;PMS_P1;PMS_P2;Temp;Humidity;BMP_temperature;BMP_pressure;BME280_temperature;BME280_humidity;BME280_pressure;Samples;Min_cycle;Max_cycle;Signal;HPM_P1;HPM_P2
2023/10/21 00:01:32;;;;;;;;;;;;;;;17.99;62.29;98191.06;4213533;28;20381;-63
2023/10/21 00:03:33;;;;;;;;;;;;;;;17.97;62.18;98185.09;4213544;28;19931;-63
2023/10/21 00:05:35;;;;;;;;;;;;;;;17.98;62.10;98194.72;4213580;28;20289;-63
2023/10/21 00:07:37;;;;;;;;;;;;;;;17.97;62.20;98194.88;4213667;28;20027;-63
2023/10/21 00:09:39;;;;;;;;;;;;;;;17.95;62.27;98194.22;4213094;28;19924;-62
2023/10/21 00:11:40;;;;;;;;;;;;;;;17.96;61.92;98202.03;4213514;28;20010;-62
2023/10/21 00:13:42;;;;;;;;;;;;;;;17.95;61.95;98195.03;4213435;28;19928;-62
2023/10/21 00:15:43;;;;;;;;;;;;;;;17.95;61.98;98203.03;4213532;28;19924;-62
2023/10/21 00:17:45;;;;;;;;;;;;;;;17.95;62.15;98204.88;4213298;28;19931;-62
2023/10/21 00:19:47;;;;;;;;;;;;;;;17.94;62.28;98208.47;4213678;28;19999;-62
2023/10/21 00:21:49;;;;;;;;;;;;;;;17.94;62.01;98211.97;4213541;28;19931;-62
2023/10/21 00:23:50;;;;;;;;;;;;;;;17.93;61.93;98215.63;4212824;28;20034;-62
2023/10/21 00:25:52;;;;;;;;;;;;;;;17.93;62.14;98218.28;4213341;28;20022;-63
2023/10/21 00:27:53;;;;;;;;;;;;;;;17.94;61.95;98216.47;4213494;28;19924;-62
2023/10/21 00:29:55;;;;;;;;;;;;;;;17.91;62.19;98230.91;4213387;28;20365;-62
2023/10/21 00:31:57;;;;;;;;;;;;;;;17.92;62.28;98239.72;4215212;28;19928;-62
2023/10/21 00:33:59;;;;;;;;;;;;;;;17.90;62.31;98242.53;4216417;28;20413;-62
2023/10/21 00:36:00;;;;;;;;;;;;;;;17.89;62.23;98244.34;4216578;28;20348;-62
2023/10/21 00:38:02;;;;;;;;;;;;;;;17.90;62.03;98250.53;4216252;28;19982;-62
2023/10/21 00:40:06;;;;;;;;;;;;;;;17.89;62.21;98262.16;4216672;28;19943;-61
2023/10/21 00:42:07;;;;;;;;;;;;;;;17.87;62.07;98264.97;4216459;28;19950;-61
2023/10/21 00:44:09;;;;;;;;;;;;;;;17.88;62.25;98273.78;4216442;28;19924;-61
2023/10/21 00:46:13;;;;;;;;;;;;;;;17.87;62.26;98272.97;4216469;28;20015;-61
2023/10/21 00:48:15;;;;;;;;;;;;;;;17.86;62.03;98279.25;4216299;28;19939;-62
2023/10/21 00:50:16;;;;;;;;;;;;;;;17.87;62.07;98288.06;4216474;28;19924;-62
2023/10/21 00:52:18;;;;;;;;;;;;;;;17.86;61.88;98294.38;4216191;28;20297;-61
2023/10/21 00:54:20;;;;;;;;;;;;;;;17.85;62.14;98306.00;4216369;28;19974;-62
2023/10/21 00:56:21;;;;;;;;;;;;;;;17.84;62.04;98312.34;4216328;28;19928;-62
2023/10/21 00:58:25;;;;;;;;;;;;;;;17.84;61.91;98312.34;4216455;28;20401;-62
2023/10/21 01:00:27;;;;;;;;;;;;;;;17.83;61.87;98318.63;4216302;28;19924;-62
2023/10/21 01:02:30;;;;;;;;;;;;;;;17.83;62.27;98335.41;4216144;28;19931;-62
2023/10/21 01:04:31;;;;;;;;;;;;;;;17.84;61.86;98342.41;4216247;28;19930;-63
2023/10/21 01:06:33;;;;;;;;;;;;;;;17.83;61.63;98334.59;4216398;28;19928;-63
2023/10/21 01:08:45;;;;;;;;;;;;;;;17.81;61.84;98340.06;4216040;28;20380;-64
2023/10/21 01:10:47;;;;;;;;;;;;;;;17.81;62.06;98353.38;4214888;28;19954;-62
2023/10/21 01:12:49;;;;;;;;;;;;;;;17.81;61.89;98352.53;4216102;28;19924;-62
2023/10/21 01:14:52;;;;;;;;;;;;;;;17.80;62.19;98350.84;4216340;28;20364;-63
2023/10/21 01:16:54;;;;;;;;;;;;;;;17.80;61.87;98358.81;4216018;28;20391;-64
2023/10/21 01:18:55;;;;;;;;;;;;;;;17.79;61.92;98352.69;4216107;28;19924;-63
2023/10/21 01:20:57;;;;;;;;;;;;;;;17.78;61.83;98355.50;4215895;28;19924;-63
2023/10/21 01:23:01;;;;;;;;;;;;;;;17.77;61.80;98370.63;4215526;28;20015;-63
2023/10/21 01:25:04;;;;;;;;;;;;;;;17.75;61.84;98380.56;4215766;28;20020;-62
2023/10/21 01:27:05;;;;;;;;;;;;;;;17.76;62.17;98379.56;4215915;28;19924;-62
2023/10/21 01:29:10;;;;;;;;;;;;;;;17.75;61.78;98377.91;4215954;28;19992;-62
2023/10/21 01:31:12;;;;;;;;;;;;;;;17.75;62.05;98380.56;4215750;28;20013;-62
2023/10/21 01:33:13;;;;;;;;;;;;;;;17.75;61.88;98390.38;4215696;28;19935;-62
2023/10/21 01:35:16;;;;;;;;;;;;;;;17.73;61.79;98395.84;4215636;28;20401;-62
2023/10/21 01:37:17;;;;;;;;;;;;;;;17.72;61.96;98395.00;4215184;28;20381;-61
2023/10/21 01:39:19;;;;;;;;;;;;;;;17.73;61.73;98401.19;4215509;28;19968;-61
2023/10/21 01:41:21;;;;;;;;;;;;;;;17.72;61.99;98408.31;4215759;28;19931;-62
2023/10/21 01:43:22;;;;;;;;;;;;;;;17.72;61.91;98396.84;4214431;28;19978;-62
2023/10/21 01:45:24;;;;;;;;;;;;;;;17.72;61.78;98418.13;4215756;28;19956;-62
2023/10/21 01:47:26;;;;;;;;;;;;;;;17.71;61.98;98425.25;4215478;28;19932;-62
2023/10/21 01:49:28;;;;;;;;;;;;;;;17.70;61.88;98414.78;4215513;28;20166;-62
2023/10/21 01:51:30;;;;;;;;;;;;;;;17.70;61.93;98428.06;4215060;28;20323;-62
2023/10/21 01:53:31;;;;;;;;;;;;;;;17.70;61.79;98431.56;4204536;28;20371;-62
2023/10/21 01:55:33;;;;;;;;;;;;;;;17.69;61.78;98427.25;4198978;28;19930;-61
2023/10/21 01:57:35;;;;;;;;;;;;;;;17.68;61.86;98432.69;4198678;28;19931;-60
2023/10/21 01:59:40;;;;;;;;;;;;;;;17.68;61.76;98438.00;4198783;28;19948;-62
2023/10/21 02:01:42;;;;;;;;;;;;;;;17.66;61.40;98435.50;4198536;28;20286;-61
2023/10/21 02:03:43;;;;;;;;;;;;;;;17.66;61.85;98440.84;4198613;28;20249;-61
2023/10/21 02:05:45;;;;;;;;;;;;;;;17.66;61.88;98443.50;4198028;28;19924;-62
2023/10/21 02:07:47;;;;;;;;;;;;;;;17.65;61.76;98441.00;4198336;28;19925;-62
2023/10/21 02:09:49;;;;;;;;;;;;;;;17.64;61.76;98442.81;4198534;28;19931;-62
2023/10/21 02:11:52;;;;;;;;;;;;;;;17.63;61.73;98443.81;4198422;28;20020;-62
2023/10/21 02:13:54;;;;;;;;;;;;;;;17.64;61.78;98447.28;4198298;28;19929;-62
2023/10/21 02:15:55;;;;;;;;;;;;;;;17.63;61.75;98446.47;4198178;28;19931;-61
2023/10/21 02:17:57;;;;;;;;;;;;;;;17.63;61.48;98459.75;4207645;28;19924;-61
2023/10/21 02:19:59;;;;;;;;;;;;;;;17.64;61.58;98460.59;4214717;28;19931;-62
2023/10/21 02:22:00;;;;;;;;;;;;;;;17.63;61.72;98470.41;4214920;28;20326;-62
2023/10/21 02:24:02;;;;;;;;;;;;;;;17.63;61.66;98470.41;4214722;28;20369;-60
2023/10/21 02:26:05;;;;;;;;;;;;;;;17.62;61.65;98467.88;4214937;28;19986;-62
2023/10/21 02:28:06;;;;;;;;;;;;;;;17.61;61.68;98477.69;4214857;28;19924;-62
2023/10/21 02:30:10;;;;;;;;;;;;;;;17.61;61.52;98488.31;4214681;28;19928;-62
2023/10/21 02:32:12;;;;;;;;;;;;;;;17.61;61.23;98487.50;4214897;28;19931;-62
2023/10/21 02:34:13;;;;;;;;;;;;;;;17.59;61.45;98492.94;4214747;28;20389;-62
2023/10/21 02:36:15;;;;;;;;;;;;;;;17.57;61.50;98492.28;4214739;28;19924;-62
2023/10/21 02:38:16;;;;;;;;;;;;;;;17.58;61.47;98493.09;4214568;28;19931;-62
2023/10/21 02:40:18;;;;;;;;;;;;;;;17.56;61.57;98490.59;4214789;28;19993;-62
2023/10/21 02:42:20;;;;;;;;;;;;;;;17.57;61.26;98500.25;4214691;28;19946;-62
2023/10/21 02:44:21;;;;;;;;;;;;;;;17.55;61.49;98503.03;4214639;28;19976;-62
2023/10/21 02:46:23;;;;;;;;;;;;;;;17.54;61.33;98501.38;4196607;28;20393;-62
2023/10/21 02:48:24;;;;;;;;;;;;;;;17.53;61.29;98501.53;4213966;28;19930;-62
2023/10/21 02:50:26;;;;;;;;;;;;;;;17.53;61.08;98501.53;4214242;28;19924;-63
2023/10/21 02:52:28;;;;;;;;;;;;;;;17.53;61.39;98510.34;4214523;28;19928;-62
2023/10/21 02:54:30;;;;;;;;;;;;;;;17.53;61.44;98514.81;4214195;28;19924;-62
2023/10/21 02:56:32;;;;;;;;;;;;;;;17.52;61.31;98515.81;4214489;28;19928;-61
2023/10/21 02:58:37;;;;;;;;;;;;;;;17.50;61.54;98507.19;4214452;28;19924;-62
2023/10/21 03:00:40;;;;;;;;;;;;;;;17.51;61.35;98533.59;4214456;28;19982;-62
2023/10/21 03:02:45;;;;;;;;;;;;;;;17.51;61.39;98530.94;4214231;28;20032;-62
2023/10/21 03:04:46;;;;;;;;;;;;;;;17.51;61.35;98527.41;4214243;28;19928;-62
2023/10/21 03:06:48;;;;;;;;;;;;;;;17.50;61.46;98539.06;4214228;28;19924;-62
2023/10/21 03:08:50;;;;;;;;;;;;;;;17.49;61.44;98534.72;4214318;28;19928;-62
2023/10/21 03:10:51;;;;;;;;;;;;;;;17.50;61.04;98541.72;4214274;28;20452;-61
2023/10/21 03:12:53;;;;;;;;;;;;;;;17.48;61.20;98543.69;4214150;28;19928;-62
2023/10/21 03:14:58;;;;;;;;;;;;;;;17.47;61.23;98542.84;4214192;28;19992;-62
2023/10/21 03:16:59;;;;;;;;;;;;;;;17.47;61.04;98550.81;4214208;28;19924;-62
2023/10/21 03:19:01;;;;;;;;;;;;;;;17.46;61.14;98557.13;4213712;28;20376;-62
2023/10/21 03:21:03;;;;;;;;;;;;;;;17.45;61.23;98550.16;4214062;28;20428;-62
2023/10/21 03:23:05;;;;;;;;;;;;;;;17.45;60.83;98563.44;4213910;28;19924;-62
2023/10/21 03:25:07;;;;;;;;;;;;;;;17.44;61.00;98548.47;4213899;28;19928;-61
2023/10/21 03:27:09;;;;;;;;;;;;;;;17.45;61.12;98551.94;4214067;28;19932;-61
2023/10/21 03:29:11;;;;;;;;;;;;;;;17.44;61.14;98574.19;4214006;28;20003;-62
2023/10/21 03:31:15;;;;;;;;;;;;;;;17.43;60.93;98561.91;4214113;28;19924;-62
2023/10/21 03:33:16;;;;;;;;;;;;;;;17.41;60.80;98564.72;4213588;28;19928;-62
2023/10/21 03:35:18;;;;;;;;;;;;;;;17.40;60.82;98563.06;4213936;28;19989;-62
2023/10/21 03:37:20;;;;;;;;;;;;;;;17.42;60.79;98570.88;4213830;28;19928;-62
2023/10/21 03:39:21;;;;;;;;;;;;;;;17.40;60.68;98574.50;4213810;28;19928;-62
2023/10/21 03:41:23;;;;;;;;;;;;;;;17.40;60.73;98581.66;4213929;28;20009;-62
2023/10/21 03:43:25;;;;;;;;;;;;;;;17.39;60.66;98580.81;4213781;28;19924;-62
2023/10/21 03:45:28;;;;;;;;;;;;;;;17.38;60.84;98578.31;4213981;28;19924;-62
2023/10/21 03:47:30;;;;;;;;;;;;;;;17.38;60.82;98583.63;4213481;28;19947;-62
2023/10/21 03:49:31;;;;;;;;;;;;;;;17.36;60.83;98586.44;4213678;28;19925;-62
2023/10/21 03:51:33;;;;;;;;;;;;;;;17.37;60.93;98590.75;4213672;28;19971;-63
2023/10/21 03:53:34;;;;;;;;;;;;;;;17.36;60.82;98597.06;4213852;28;19969;-61
2023/10/21 03:55:37;;;;;;;;;;;;;;;17.37;60.48;98603.22;4212529;28;19928;-62
2023/10/21 03:57:38;;;;;;;;;;;;;;;17.36;60.76;98610.34;4213788;28;19950;-62
2023/10/21 03:59:40;;;;;;;;;;;;;;;17.35;60.62;98611.34;4213526;28;20015;-62
2023/10/21 04:01:41;;;;;;;;;;;;;;;17.35;60.64;98614.00;4213355;28;20301;-62
2023/10/21 04:03:44;;;;;;;;;;;;;;;17.35;60.57;98619.31;4213508;28;19928;-62
2023/10/21 04:05:46;;;;;;;;;;;;;;;17.34;60.73;98614.97;4213683;28;19928;-62
2023/10/21 04:07:48;;;;;;;;;;;;;;;17.33;60.80;98620.44;4217140;28;20412;-62
2023/10/21 04:09:49;;;;;;;;;;;;;;;17.34;60.50;98627.41;4217059;28;19924;-61
2023/10/21 04:11:50;;;;;;;;;;;;;;;17.32;60.72;98627.56;4217132;28;19928;-61
2023/10/21 04:13:52;;;;;;;;;;;;;;;17.32;60.75;98637.38;4216964;28;19928;-62
2023/10/21 04:15:54;;;;;;;;;;;;;;;17.31;60.54;98633.03;4216380;28;20027;-61
2023/10/21 04:17:55;;;;;;;;;;;;;;;17.31;60.75;98641.81;4216920;28;20396;-62
2023/10/21 04:19:57;;;;;;;;;;;;;;;17.30;60.81;98642.81;4216737;28;19974;-62
2023/10/21 04:21:59;;;;;;;;;;;;;;;17.30;60.76;98642.00;4217101;28;19924;-61
2023/10/21 04:24:01;;;;;;;;;;;;;;;17.29;60.36;98654.44;4216687;28;19928;-61
2023/10/21 04:26:03;;;;;;;;;;;;;;;17.28;60.57;98647.47;4216897;28;19930;-61
2023/10/21 04:28:05;;;;;;;;;;;;;;;17.28;60.55;98654.56;4198863;28;20375;-61
2023/10/21 04:30:08;;;;;;;;;;;;;;;17.27;60.46;98651.09;4216471;28;20437;-62
2023/10/21 04:32:09;;;;;;;;;;;;;;;17.27;60.59;98663.53;4216699;28;19971;-61
2023/10/21 04:34:12;;;;;;;;;;;;;;;17.27;60.18;98658.22;4216435;28;20401;-61
2023/10/21 04:36:17;;;;;;;;;;;;;;;17.26;60.24;98659.22;4216744;28;19940;-63
2023/10/21 04:38:19;;;;;;;;;;;;;;;17.24;60.29;98657.53;4216581;28;19928;-62
2023/10/21 04:40:20;;;;;;;;;;;;;;;17.23;60.32;98666.50;4216613;28;19931;-61
2023/10/21 04:42:25;;;;;;;;;;;;;;;17.24;60.42;98664.66;4216649;28;19981;-62
2023/10/21 04:44:27;;;;;;;;;;;;;;;17.22;60.21;98664.00;4216120;28;19924;-62
2023/10/21 04:46:31;;;;;;;;;;;;;;;17.21;60.42;98659.66;4216696;28;19924;-62
2023/10/21 04:48:32;;;;;;;;;;;;;;;17.22;60.10;98677.28;4216077;28;19935;-62
2023/10/21 04:50:34;;;;;;;;;;;;;;;17.21;60.44;98668.44;4216323;28;19928;-62
2023/10/21 04:52:35;;;;;;;;;;;;;;;17.21;60.49;98675.59;4216380;28;19924;-62
2023/10/21 04:54:37;;;;;;;;;;;;;;;17.20;60.15;98674.75;4216174;28;19935;-62
2023/10/21 04:56:39;;;;;;;;;;;;;;;17.19;60.43;98686.38;4216097;28;19931;-62
2023/10/21 04:58:41;;;;;;;;;;;;;;;17.19;60.01;98683.72;4213405;28;19932;-61
2023/10/21 05:00:43;;;;;;;;;;;;;;;17.19;60.02;98685.53;4199172;28;20389;-61
2023/10/21 05:02:44;;;;;;;;;;;;;;;17.19;60.39;98691.69;4199726;28;19928;-61
2023/10/21 05:04:46;;;;;;;;;;;;;;;17.18;60.09;98692.66;4199406;28;19960;-62
2023/10/21 05:06:48;;;;;;;;;;;;;;;17.18;60.09;98705.09;4199553;28;19924;-62
2023/10/21 05:08:49;;;;;;;;;;;;;;;17.16;60.15;98699.94;4199526;28;19979;-61
2023/10/21 05:10:55;;;;;;;;;;;;;;;17.17;60.17;98700.75;4199393;28;19925;-61
2023/10/21 05:12:56;;;;;;;;;;;;;;;17.16;60.14;98707.91;4199355;28;19986;-64
2023/10/21 05:14:58;;;;;;;;;;;;;;;17.15;60.24;98708.88;4198733;28;20304;-64
2023/10/21 05:16:59;;;;;;;;;;;;;;;17.15;59.99;98713.38;4200701;28;19924;-63
2023/10/21 05:19:01;;;;;;;;;;;;;;;17.13;59.95;98705.53;4215949;28;19947;-63
2023/10/21 05:21:06;;;;;;;;;;;;;;;17.13;59.95;98726.78;4215916;28;19931;-63
2023/10/21 05:23:08;;;;;;;;;;;;;;;17.13;59.93;98726.78;4215703;28;19924;-61
2023/10/21 05:25:09;;;;;;;;;;;;;;;17.12;60.06;98725.13;4215505;28;19931;-64
2023/10/21 05:27:11;;;;;;;;;;;;;;;17.12;60.06;98718.97;4215855;28;19924;-61
2023/10/21 05:29:12;;;;;;;;;;;;;;;17.11;59.86;98725.25;4215559;28;20022;-63
2023/10/21 05:31:14;;;;;;;;;;;;;;;17.11;60.22;98727.91;4215792;28;20345;-61
2023/10/21 05:33:16;;;;;;;;;;;;;;;17.11;59.87;98728.78;4215931;28;19931;-61
2023/10/21 05:35:18;;;;;;;;;;;;;;;17.11;59.85;98722.59;4215828;28;19924;-62
2023/10/21 05:37:19;;;;;;;;;;;;;;;17.11;59.85;98733.22;4215799;28;20400;-62
2023/10/21 05:39:22;;;;;;;;;;;;;;;17.09;59.75;98733.38;4215768;28;20003;-61
2023/10/21 05:41:23;;;;;;;;;;;;;;;17.08;60.17;98729.91;4215691;28;20286;-62
2023/10/21 05:43:25;;;;;;;;;;;;;;;17.07;59.83;98732.69;4215162;28;20369;-62
2023/10/21 05:45:26;;;;;;;;;;;;;;;17.07;59.89;98738.00;4215545;28;19924;-62
2023/10/21 05:47:28;;;;;;;;;;;;;;;17.06;60.04;98734.50;4215475;28;19932;-62
2023/10/21 05:49:30;;;;;;;;;;;;;;;17.06;59.85;98734.50;4215546;28;20380;-61
2023/10/21 05:51:32;;;;;;;;;;;;;;;17.06;59.77;98733.66;4215574;28;20026;-62
2023/10/21 05:53:34;;;;;;;;;;;;;;;17.04;59.73;98731.16;4215670;28;19970;-62
2023/10/21 05:55:42;;;;;;;;;;;;;;;17.04;59.87;98733.81;4215488;28;19950;-62
2023/10/21 05:57:44;;;;;;;;;;;;;;;17.04;59.80;98736.47;4214850;28;19924;-62
2023/10/21 05:59:45;;;;;;;;;;;;;;;17.04;59.96;98732.97;4215316;28;19974;-62
2023/10/21 06:01:47;;;;;;;;;;;;;;;17.03;59.94;98745.41;4215311;28;19967;-61
2023/10/21 06:03:48;;;;;;;;;;;;;;;17.02;59.94;98730.47;4215235;28;20014;-61
2023/10/21 06:05:50;;;;;;;;;;;;;;;17.03;60.16;98733.97;4215279;28;19925;-62
2023/10/21 06:07:52;;;;;;;;;;;;;;;17.02;59.93;98737.59;4215243;28;20329;-62
2023/10/21 06:09:53;;;;;;;;;;;;;;;17.01;59.57;98727.94;4215089;28;19986;-62
2023/10/21 06:11:55;;;;;;;;;;;;;;;17.00;59.58;98742.22;4214772;28;19932;-62
2023/10/21 06:13:56;;;;;;;;;;;;;;;17.00;59.72;98745.72;4214947;28;19924;-62
2023/10/21 06:15:58;;;;;;;;;;;;;;;17.00;59.71;98750.16;4215038;28;20023;-62
2023/10/21 06:17:59;;;;;;;;;;;;;;;16.99;59.68;98744.03;4215000;28;19934;-62
2023/10/21 06:20:03;;;;;;;;;;;;;;;16.99;59.81;98757.31;4214798;28;19977;-61
2023/10/21 06:22:04;;;;;;;;;;;;;;;16.99;59.71;98753.84;4214948;28;20014;-62
2023/10/21 06:24:06;;;;;;;;;;;;;;;16.98;59.97;98758.28;4196581;28;19931;-62
2023/10/21 06:26:14;;;;;;;;;;;;;;;16.98;59.63;98757.47;4214714;28;20026;-62
2023/10/21 06:28:15;;;;;;;;;;;;;;;16.97;59.81;98767.22;4215005;28;19951;-62
2023/10/21 06:30:17;;;;;;;;;;;;;;;16.97;59.67;98756.63;4214069;28;19924;-61
2023/10/21 06:32:19;;;;;;;;;;;;;;;16.97;59.92;98774.38;4197255;28;20451;-62
2023/10/21 06:34:20;;;;;;;;;;;;;;;16.96;59.85;98778.00;4214786;28;19977;-62
2023/10/21 06:36:22;;;;;;;;;;;;;;;16.95;59.64;98774.53;4214733;28;19923;-62
2023/10/21 06:38:23;;;;;;;;;;;;;;;16.96;59.65;98776.19;4214714;28;19959;-62
2023/10/21 06:40:25;;;;;;;;;;;;;;;16.95;59.80;98787.81;4214331;28;20014;-62
2023/10/21 06:42:45;;;;;;;;;;;;;;;16.96;59.67;98792.09;4214705;28;19934;-62
2023/10/21 06:44:47;;;;;;;;;;;;;;;16.95;59.71;98786.94;4214480;28;19977;-62
2023/10/21 06:46:49;;;;;;;;;;;;;;;16.95;59.79;98794.91;4214922;28;19932;-61
2023/10/21 06:48:50;;;;;;;;;;;;;;;16.95;59.66;98794.91;4214341;28;20003;-62
2023/10/21 06:50:52;;;;;;;;;;;;;;;16.94;59.80;98799.41;4214668;28;19924;-62
2023/10/21 06:52:54;;;;;;;;;;;;;;;16.94;59.62;98807.38;4214653;28;19931;-62
2023/10/21 06:54:55;;;;;;;;;;;;;;;16.94;59.60;98807.38;4214256;28;19928;-62
2023/10/21 06:56:57;;;;;;;;;;;;;;;16.94;59.41;98810.03;4214532;28;19977;-62
2023/10/21 06:58:59;;;;;;;;;;;;;;;16.93;59.37;98819.78;4214350;28;20289;-62
2023/10/21 07:01:01;;;;;;;;;;;;;;;16.94;59.45;98815.34;4214379;28;19928;-62
2023/10/21 07:03:03;;;;;;;;;;;;;;;16.93;59.54;98806.50;4214294;28;19924;-62
2023/10/21 07:05:09;;;;;;;;;;;;;;;16.92;59.34;98823.41;4214239;28;19924;-61
2023/10/21 07:07:11;;;;;;;;;;;;;;;16.93;59.49;98821.63;4214240;28;20068;-63
2023/10/21 07:09:12;;;;;;;;;;;;;;;16.93;59.34;98824.28;4214425;28;19928;-62
2023/10/21 07:11:14;;;;;;;;;;;;;;;16.91;59.33;98819.09;4213809;28;19963;-62
2023/10/21 07:13:17;;;;;;;;;;;;;;;16.89;59.27;98831.66;4214238;28;19928;-61
2023/10/21 07:15:19;;;;;;;;;;;;;;;16.90;59.61;98832.47;4214324;28;19972;-61
2023/10/21 07:17:20;;;;;;;;;;;;;;;16.89;59.25;98839.63;4213881;28;19925;-62
2023/10/21 07:19:22;;;;;;;;;;;;;;;16.90;59.22;98851.06;4213967;28;19958;-62
2023/10/21 07:21:25;;;;;;;;;;;;;;;16.91;59.30;98866.03;4213997;28;19925;-61
2023/10/21 07:23:27;;;;;;;;;;;;;;;16.89;59.14;98844.94;4214269;28;19924;-62
2023/10/21 07:25:28;;;;;;;;;;;;;;;16.89;59.49;98858.22;4213528;28;19989;-62
2023/10/21 07:27:30;;;;;;;;;;;;;;;16.89;59.37;98860.00;4213554;28;20231;-62
2023/10/21 07:29:31;;;;;;;;;;;;;;;16.88;59.27;98851.22;4213904;28;19970;-62
2023/10/21 07:31:34;;;;;;;;;;;;;;;16.87;59.15;98852.19;4213891;28;19924;-61
2023/10/21 07:33:35;;;;;;;;;;;;;;;16.88;59.45;98853.03;4195896;28;19928;-63
2023/10/21 07:35:38;;;;;;;;;;;;;;;16.88;59.07;98858.34;4214080;28;20310;-63
2023/10/21 07:37:39;;;;;;;;;;;;;;;16.86;59.22;98861.13;4213924;28;19928;-61
2023/10/21 07:39:41;;;;;;;;;;;;;;;16.86;59.30;98865.63;4212470;28;20401;-61
2023/10/21 07:41:43;;;;;;;;;;;;;;;16.86;59.02;98861.13;4212699;28;20011;-62
2023/10/21 07:43:45;;;;;;;;;;;;;;;16.86;59.14;98860.31;4213812;28;19930;-61
2023/10/21 07:45:47;;;;;;;;;;;;;;;16.86;59.33;98860.31;4213918;28;19924;-62
2023/10/21 07:47:48;;;;;;;;;;;;;;;16.86;59.05;98860.31;4213391;28;20381;-61
2023/10/21 07:49:51;;;;;;;;;;;;;;;16.86;59.30;98866.44;4213977;28;19924;-61
2023/10/21 07:51:56;;;;;;;;;;;;;;;16.86;59.31;98870.94;4213654;28;19951;-63
2023/10/21 07:53:57;;;;;;;;;;;;;;;16.86;59.18;98865.63;4213294;28;19947;-61
2023/10/21 07:55:59;;;;;;;;;;;;;;;16.85;59.14;98858.63;4213754;28;19924;-63
2023/10/21 07:58:01;;;;;;;;;;;;;;;16.86;58.84;98878.88;4212499;28;19951;-63
2023/10/21 08:00:04;;;;;;;;;;;;;;;16.86;58.84;98863.78;4213556;28;19924;-63
2023/10/21 08:02:06;;;;;;;;;;;;;;;16.84;59.19;98871.06;4213451;28;19928;-63
2023/10/21 08:04:07;;;;;;;;;;;;;;;16.85;58.98;98863.94;4213473;28;19932;-63
2023/10/21 08:06:09;;;;;;;;;;;;;;;16.86;58.75;98869.09;4213526;28;20454;-62
2023/10/21 08:08:11;;;;;;;;;;;;;;;16.85;59.03;98874.56;4213243;28;19995;-63
2023/10/21 08:10:12;;;;;;;;;;;;;;;16.86;58.91;98881.53;4195511;28;19924;-63
2023/10/21 08:12:14;;;;;;;;;;;;;;;16.86;58.76;98881.53;4213318;28;19930;-64
2023/10/21 08:14:16;;;;;;;;;;;;;;;16.87;59.00;98877.91;4213114;28;19928;-63
2023/10/21 08:16:19;;;;;;;;;;;;;;;16.86;59.04;98886.84;4213541;28;20364;-64
2023/10/21 08:18:22;;;;;;;;;;;;;;;16.85;58.88;98882.53;4213388;28;19932;-64
2023/10/21 08:20:24;;;;;;;;;;;;;;;16.85;58.64;98874.56;4213427;28;19924;-63
2023/10/21 08:22:26;;;;;;;;;;;;;;;16.84;58.68;98889.66;4213261;28;20365;-63
2023/10/21 08:24:27;;;;;;;;;;;;;;;16.85;58.60;98871.91;4213111;28;19924;-63
2023/10/21 08:26:31;;;;;;;;;;;;;;;16.85;58.76;98885.16;4213338;28;19950;-60
2023/10/21 08:28:32;;;;;;;;;;;;;;;16.86;58.54;98884.19;4213227;28;19928;-63
2023/10/21 08:30:36;;;;;;;;;;;;;;;16.86;58.70;98889.50;4213343;28;19924;-63
2023/10/21 08:32:38;;;;;;;;;;;;;;;16.85;58.76;98895.78;4213219;28;19924;-63
2023/10/21 08:34:39;;;;;;;;;;;;;;;16.84;58.64;98913.56;4213476;28;19924;-60
2023/10/21 08:36:42;;;;;;;;;;;;;;;16.83;58.47;98905.72;4209300;28;19931;-63
2023/10/21 08:38:44;;;;;;;;;;;;;;;16.83;58.43;98908.38;4196573;28;19978;-62
2023/10/21 08:40:47;;;;;;;;;;;;;;;16.80;58.59;98901.50;4196410;28;20306;-63
2023/10/21 08:42:49;;;;;;;;;;;;;;;16.82;58.67;98909.38;4178910;28;20027;-62
2023/10/21 08:45:07;;;;;;;;;;;;;;;16.82;58.56;98901.41;4196609;28;19943;-61
2023/10/21 08:47:10;;;;;;;;;;;;;;;16.83;58.29;98908.38;4196423;28;19924;-60
2023/10/21 08:49:12;;;;;;;;;;;;;;;16.83;58.21;98901.25;4196257;28;19928;-61
2023/10/21 08:51:25;;;;;;;;;;;;;;;16.84;58.26;98900.28;4196165;28;19970;-62
2023/10/21 08:53:26;;;;;;;;;;;;;;;16.84;58.26;98918.88;4198803;28;19933;-61
2023/10/21 08:55:28;;;;;;;;;;;;;;;16.85;58.54;98898.44;4199000;28;19932;-62
2023/10/21 08:57:30;;;;;;;;;;;;;;;16.84;58.15;98910.91;4199446;28;19925;-61
2023/10/21 08:59:32;;;;;;;;;;;;;;;16.84;58.13;98905.59;4199497;28;19935;-61
2023/10/21 09:01:35;;;;;;;;;;;;;;;16.84;58.35;98910.91;4199757;28;19931;-62
2023/10/21 09:03:36;;;;;;;;;;;;;;;16.86;58.22;98913.41;4198918;28;19935;-61
2023/10/21 09:05:57;;;;;;;;;;;;;;;16.85;58.13;98919.69;4198023;28;19932;-62
2023/10/21 09:07:59;;;;;;;;;;;;;;;16.85;58.06;98930.31;4209102;28;20282;-61
2023/10/21 09:10:08;;;;;;;;;;;;;;;16.85;58.34;98914.38;4211996;28;19974;-62
2023/10/21 09:12:13;;;;;;;;;;;;;;;16.84;57.99;98916.22;4202870;28;20331;-59
2023/10/21 09:14:15;;;;;;;;;;;;;;;16.73;58.04;98879.16;4203421;28;19977;-60
2023/10/21 09:16:20;;;;;;;;;;;;;;;17.04;58.20;98925.03;4215667;28;19935;-61
2023/10/21 09:18:22;;;;;;;;;;;;;;;17.27;57.92;98915.91;4215459;28;20015;-60
2023/10/21 09:20:23;;;;;;;;;;;;;;;17.37;58.28;98928.19;4198914;28;19924;-62
2023/10/21 09:22:27;;;;;;;;;;;;;;;17.48;58.01;98924.56;4199024;28;20350;-60
2023/10/21 09:24:29;;;;;;;;;;;;;;;17.56;57.89;98921.19;4205143;28;19928;-59
2023/10/21 09:26:49;;;;;;;;;;;;;;;17.61;57.61;98902.97;4215917;28;19928;-59
2023/10/21 09:29:03;;;;;;;;;;;;;;;17.57;57.42;98920.22;4215782;28;19931;-59
2023/10/21 09:31:05;;;;;;;;;;;;;;;17.55;58.35;98938.13;4215883;28;19924;-61
2023/10/21 09:33:09;;;;;;;;;;;;;;;17.59;58.38;98941.31;4215665;28;19924;-59
2023/10/21 09:35:14;;;;;;;;;;;;;;;17.63;58.63;98948.88;4215476;28;19932;-60
2023/10/21 09:37:24;;;;;;;;;;;;;;;17.68;58.59;98941.31;4201106;28;19925;-58
2023/10/21 09:39:29;;;;;;;;;;;;;;;17.74;58.69;98942.56;4198521;28;19924;-61
2023/10/21 09:41:30;;;;;;;;;;;;;;;17.82;58.32;98949.78;4199927;28;20305;-61
2023/10/21 09:43:33;;;;;;;;;;;;;;;17.87;58.12;98947.53;4202106;28;20015;-59
2023/10/21 09:45:34;;;;;;;;;;;;;;;17.86;58.25;98938.72;4214820;28;19935;-60
2023/10/21 09:47:38;;;;;;;;;;;;;;;17.87;58.05;98935.09;4215175;28;19931;-60
2023/10/21 09:49:41;;;;;;;;;;;;;;;17.90;57.95;98928.63;4200812;28;19924;-61
2023/10/21 09:51:52;;;;;;;;;;;;;;;17.96;58.12;98948.50;4209531;28;19946;-60
2023/10/21 09:53:56;;;;;;;;;;;;;;;17.99;57.88;98940.25;4196843;28;19959;-61
2023/10/21 09:55:58;;;;;;;;;;;;;;;18.00;57.31;98945.41;4215515;28;20002;-59
2023/10/21 09:58:00;;;;;;;;;;;;;;;17.99;57.24;98943.72;4215537;28;19968;-59
2023/10/21 10:00:02;;;;;;;;;;;;;;;18.05;57.23;98952.97;4215425;28;19938;-58
2023/10/21 10:02:04;;;;;;;;;;;;;;;18.19;55.58;98955.16;4211553;28;20019;-58
2023/10/21 10:04:09;;;;;;;;;;;;;;;18.07;55.89;98947.47;4213707;28;19930;-60
2023/10/21 10:06:12;;;;;;;;;;;;;;;18.04;56.74;98959.25;4207877;28;19928;-61
2023/10/21 10:08:16;;;;;;;;;;;;;;;18.09;56.92;98956.16;4198845;28;19935;-63
2023/10/21 10:10:18;;;;;;;;;;;;;;;18.12;56.89;98956.72;4204809;28;20006;-60
2023/10/21 10:12:24;;;;;;;;;;;;;;;18.13;56.83;98949.56;4192169;28;20298;-61
2023/10/21 10:14:28;;;;;;;;;;;;;;;18.11;57.03;98952.38;4208903;28;20385;-62
2023/10/21 10:16:32;;;;;;;;;;;;;;;18.13;57.77;98954.88;4214829;28;19924;-63
2023/10/21 10:18:45;;;;;;;;;;;;;;;18.23;57.29;98954.84;4207071;28;20411;-64
2023/10/21 10:20:49;;;;;;;;;;;;;;;18.20;57.77;98932.88;4199624;28;19986;-66
2023/10/21 10:23:12;;;;;;;;;;;;;;;18.26;57.28;98960.69;4206365;28;19924;-59
2023/10/21 10:25:15;;;;;;;;;;;;;;;18.30;57.35;98947.94;4205744;28;19928;-61
2023/10/21 10:27:18;;;;;;;;;;;;;;;18.31;57.33;98963.78;4213882;28;19934;-62
2023/10/21 10:29:25;;;;;;;;;;;;;;;18.33;57.76;98937.00;4207841;28;19963;-62
2023/10/21 10:31:28;;;;;;;;;;;;;;;18.35;57.22;98943.03;4210281;28;19982;-64
2023/10/21 10:33:34;;;;;;;;;;;;;;;18.38;57.33;98953.38;4212020;28;19930;-66
2023/10/21 10:35:37;;;;;;;;;;;;;;;18.48;57.01;98955.97;4210865;28;20411;-64
2023/10/21 10:37:49;;;;;;;;;;;;;;;18.64;55.68;98936.66;4198500;28;20118;-62
2023/10/21 10:39:51;;;;;;;;;;;;;;;18.66;54.68;98935.56;4200891;28;20289;-67